Kindersley Airport, Saskatchewan

Past 24 Hour Conditions

Date / Time
(CST)
Conditions Temp
(°F)
Humidity
(%)
Dew Point
(°F)
Wind
(mph)
Pressure
(inches)
Visibility
(miles)
23 October 2014
5:00 Mostly Cloudy 43 77 36 SSE 8 29.6 15
4:00 Partly Cloudy 42 80 36 S 10 29.6 15
3:00 Mainly Clear 42 79 36 SSE 12 29.7 15
2:00 Partly Cloudy 42 78 36 SSE 10 29.7 15
1:00 Partly Cloudy 42 77 35 SSE 9 29.7 15
00:00 Partly Cloudy 44 70 35 SSE 11 29.7 15
22 October 2014
23:00 Partly Cloudy 45 69 35 SSE 10 29.7 15
22:00 Mostly Cloudy 45 70 36 SE 11 29.8 15
21:00 Partly Cloudy 43 73 35 SE 10 29.8 15
20:00 Partly Cloudy 43 75 36 SE 10 29.8 15
19:00 Mostly Cloudy 45 75 37 SE 10 29.8 15
18:00 Mostly Cloudy 50 65 39 SSW 5 29.8 15
17:00 Mostly Cloudy 55 59 41 SSW 8 29.8 15
16:00 Mainly Sunny 61   43 38 S 6 29.7 15
15:00 Mainly Sunny 59 42 36 SSW 2 29.8 15
14:00 Mainly Sunny 59 47 39 WSW 10 29.8 15
13:00 Mainly Sunny 57 53 40 WSW 7 29.8 15
12:00 Mainly Sunny 53 68 42 WSW 8 29.8 15
11:00 Mainly Sunny 48 76 40 WSW 6 29.8 15
10:00 Partly Cloudy 42 87 38 N 2 29.8 15
9:00 Mostly Cloudy 41   90 38 WNW 3 29.8 15
8:00 Mostly Cloudy 42 89 39 NW 3 29.8 15
7:00 Cloudy 43 91 41 W 6 29.8 15
6:00 Cloudy 44 90 41 WNW 5 29.8 15
5:00 Cloudy 44 90 42 WNW 6 29.8 15
N/A Not available
↑ Highest temperature
↓ Lowest temperature

If you require additional historical weather information, please visit Climate Data Online.

Date modified: